Startpagina
METAR-TAF:

METAR-TAF

Vliegvelden :

Dubai International Airport

Dubai, Verenigde Arabische Emiraten

breedte: 25-15-10N, lengte: 055-21-52E, hoogte: 8 m

Actueel weer

Dit bericht is 58 minuten geleden gemaakt, om 23:00 UTC
Wind 5 kt uit het zuiden
Temperatuur 31°C
Vochtigheid 52%
Druk 998 hPa
Zicht 10 km of meer
geen wolken onder 1500 m en geen cumulonimbus

METAR: OMDB 172300Z 18005KT CAVOK 31/20 Q0998 NOSIG

Tijdstip: 03:58 (23:58 UTC)

Verwachting

Dit bericht is 1 uur en het 6 minuten geleden gemaakt, om 22:52 UTC
Verwachting geldig van 18 om 00 UTC tot 19 om 06 UTC
Wind 7 kt uit het zuiden
Zicht 10 km of meer
geen wolken onder 1500 m en geen cumulonimbus
Wijzigt naar
van 18 om 07 UTC tot 18 om 09 UTC
Wind 12 kt uit het westnoordwesten
Wijzigt naar
van 18 om 15 UTC tot 18 om 17 UTC
Wind 5 kt uit het oostnoordoosten

TAF: OMDB 172252Z 1800/1906 17007KT CAVOK BECMG 1807/1809 29012KT BECMG 1815/1817 07005KT

Waarnemingen en weersverwachtingen van meer dan 4000 vliegvelden (METAR en TAF).

De beschikbare stations zijn de gele en rode punten op de kaart.

Ga met uw muis naar het station om de naam te zien.

Klik dan om waarnemingen en weersverwachtingen te zien.

kaart wijzigen: klik op de groene knoppen met een zwart kruis om in te zoomen, op de groene knop met een streepje om uit te zoomen of op de groene pijlen voor aangrenzende kaarten.


METAR-TAF: